createdAt,value
2022-09-23T00:02:14.275Z,101730.59
2022-09-23T00:04:43.120Z,101735.84
2022-09-23T00:07:11.385Z,101717.38
2022-09-23T00:09:39.853Z,101723.59
2022-09-23T00:12:10.598Z,101715.72
2022-09-23T00:14:40.126Z,101719.22
2022-09-23T00:17:08.721Z,101710.44
2022-09-23T00:19:40.667Z,101713.94
2022-09-23T00:22:09.579Z,101713.06
2022-09-23T00:24:37.945Z,101706.94
2022-09-23T00:27:06.833Z,101717.47
2022-09-23T00:29:37.047Z,101715.72
2022-09-23T00:32:05.736Z,101701.63
2022-09-23T00:34:34.237Z,101704.28
2022-09-23T00:37:02.490Z,101705.16
2022-09-23T00:39:32.444Z,101709.56
2022-09-23T00:42:00.692Z,101708.69
2022-09-23T00:44:49.289Z,101700.75
2022-09-23T00:47:23.790Z,101696.31
2022-09-23T00:50:00.420Z,101695.44
2022-09-23T00:52:29.398Z,101687.53
2022-09-23T00:54:59.948Z,101691.09
2022-09-23T00:57:29.018Z,101696.38
2022-09-23T00:59:59.276Z,101694.56
2022-09-23T01:02:28.590Z,101691.03
2022-09-23T01:04:56.719Z,101684.00
2022-09-23T01:07:25.080Z,101675.22
2022-09-23T01:09:53.345Z,101685.78
2022-09-23T01:12:36.574Z,101684.03
2022-09-23T01:15:16.103Z,101677.84
2022-09-23T01:17:52.589Z,101673.44
2022-09-23T01:20:43.054Z,101671.69
2022-09-23T01:23:44.164Z,101671.66
2022-09-23T01:26:31.646Z,101666.41
2022-09-23T01:29:23.995Z,101667.28
2022-09-23T01:32:01.099Z,101652.34
2022-09-23T01:34:37.696Z,101655.84
2022-09-23T01:37:12.520Z,101650.56
2022-09-23T01:39:46.703Z,101648.84
2022-09-23T01:42:22.803Z,101636.53
2022-09-23T01:44:57.311Z,101647.06
2022-09-23T01:47:31.834Z,101634.75
2022-09-23T01:50:04.074Z,101640.03
2022-09-23T01:52:40.167Z,101634.75
2022-09-23T01:55:14.677Z,101626.03
2022-09-23T01:57:48.937Z,101624.28
2022-09-23T02:00:19.713Z,101621.59
2022-09-23T02:02:55.288Z,101625.13
2022-09-23T02:05:28.780Z,101615.47
2022-09-23T02:08:00.667Z,101627.78
2022-09-23T02:10:36.270Z,101622.50
2022-09-23T02:13:10.770Z,101615.47
2022-09-23T02:15:46.169Z,101616.34
2022-09-23T02:18:21.059Z,101608.44
2022-09-23T02:20:52.372Z,101609.28
2022-09-23T02:23:24.881Z,101607.56
2022-09-23T02:25:58.976Z,101613.72
2022-09-23T02:28:33.890Z,101598.75
2022-09-23T02:31:08.887Z,101596.13
2022-09-23T02:33:44.767Z,101596.09
2022-09-23T02:36:23.787Z,101588.22
2022-09-23T02:38:58.774Z,101584.72
2022-09-23T02:41:32.873Z,101580.28
2022-09-23T02:44:07.538Z,101588.22
2022-09-23T02:46:37.306Z,101582.97
2022-09-23T02:49:12.974Z,101567.13
2022-09-23T02:51:42.416Z,101590.00
2022-09-23T02:54:14.784Z,101583.84
2022-09-23T02:56:43.732Z,101588.28
2022-09-23T02:59:13.790Z,101583.88
2022-09-23T03:01:54.717Z,101580.38
2022-09-23T03:04:36.507Z,101578.59
2022-09-23T03:07:15.488Z,101576.88
2022-09-23T03:09:53.907Z,101571.59
2022-09-23T03:12:36.314Z,101561.03
2022-09-23T03:15:20.233Z,101547.81
2022-09-23T03:17:57.276Z,101569.84
2022-09-23T03:20:34.304Z,101568.06
2022-09-23T03:23:07.280Z,101554.00
2022-09-23T03:25:40.243Z,101557.50
2022-09-23T03:28:10.272Z,101555.78
2022-09-23T03:30:40.014Z,101558.41
2022-09-23T03:33:12.308Z,101557.53
2022-09-23T03:36:02.728Z,101554.03
2022-09-23T03:38:36.438Z,101547.00
2022-09-23T03:41:06.848Z,101549.66
2022-09-23T03:43:38.700Z,101544.38
2022-09-23T03:46:09.040Z,101532.03
2022-09-23T03:48:37.478Z,101538.22
2022-09-23T03:51:21.236Z,101536.47
2022-09-23T03:53:49.783Z,101548.81
2022-09-23T03:56:17.933Z,101539.13
2022-09-23T03:58:46.819Z,101546.16
2022-09-23T04:01:15.988Z,101533.88
2022-09-23T04:03:44.137Z,101529.47
2022-09-23T04:06:14.230Z,101536.53
2022-09-23T04:08:42.535Z,101514.50
2022-09-23T04:11:10.899Z,101528.59
2022-09-23T04:13:39.760Z,101527.72
2022-09-23T04:16:08.724Z,101529.47
2022-09-23T04:18:36.846Z,101529.47
2022-09-23T04:21:05.335Z,101520.66
2022-09-23T04:23:34.979Z,101520.63
2022-09-23T04:26:03.103Z,101515.38
2022-09-23T04:28:31.369Z,101520.66
2022-09-23T04:30:59.931Z,101513.59
2022-09-23T04:33:28.328Z,101514.47
2022-09-23T04:35:57.788Z,101510.97
2022-09-23T04:38:26.079Z,101518.00
2022-09-23T04:40:55.853Z,101511.81
2022-09-23T04:43:24.877Z,101519.72
2022-09-23T04:46:00.797Z,101517.09
2022-09-23T04:48:29.492Z,101510.03
2022-09-23T04:51:04.223Z,101514.44
2022-09-23T04:53:32.773Z,101500.41
2022-09-23T04:56:07.673Z,101509.16
2022-09-23T04:58:36.062Z,101512.72
2022-09-23T05:01:11.966Z,101511.81
2022-09-23T05:03:40.786Z,101510.06
2022-09-23T05:06:09.580Z,101501.25
2022-09-23T05:08:37.770Z,101508.28
2022-09-23T05:11:09.380Z,101513.56
2022-09-23T05:13:37.627Z,101507.41
2022-09-23T05:16:08.299Z,101503.03
2022-09-23T05:18:42.982Z,101506.56
2022-09-23T05:21:12.420Z,101501.28
2022-09-23T05:23:41.925Z,101504.78
2022-09-23T05:26:13.746Z,101499.53
2022-09-23T05:28:41.892Z,101503.91
2022-09-23T05:31:19.705Z,101517.97
2022-09-23T05:33:51.802Z,101503.03
2022-09-23T05:36:21.479Z,101499.53
2022-09-23T05:38:51.423Z,101505.72
2022-09-23T05:41:23.863Z,101501.28
2022-09-23T05:43:52.632Z,101501.31
2022-09-23T05:46:23.410Z,101492.50
2022-09-23T05:48:52.608Z,101493.41
2022-09-23T05:51:22.584Z,101510.13
2022-09-23T05:53:52.919Z,101506.59
2022-09-23T05:56:24.253Z,101494.28
2022-09-23T05:58:53.747Z,101494.28
2022-09-23T06:01:26.845Z,101490.78
2022-09-23T06:03:56.488Z,101496.94
2022-09-23T06:06:28.938Z,101488.19
2022-09-23T06:08:58.689Z,101494.31
2022-09-23T06:11:31.263Z,101493.44
2022-09-23T06:14:01.239Z,101494.31
2022-09-23T06:16:30.872Z,101503.13
2022-09-23T06:19:05.031Z,101496.94
2022-09-23T06:21:34.121Z,101503.09
2022-09-23T06:24:03.116Z,101492.53
2022-09-23T06:26:35.343Z,101487.25
2022-09-23T06:29:05.383Z,101490.78
2022-09-23T06:31:33.449Z,101489.00
2022-09-23T06:34:10.800Z,101497.81
2022-09-23T06:36:45.374Z,101497.81
2022-09-23T06:39:14.539Z,101496.03
2022-09-23T06:41:44.433Z,101503.06
2022-09-23T06:44:12.454Z,101503.06
2022-09-23T06:46:41.076Z,101497.78
2022-09-23T06:49:10.440Z,101497.81
2022-09-23T06:51:38.705Z,101501.31
2022-09-23T06:54:07.233Z,101503.06
2022-09-23T06:56:39.162Z,101503.06
2022-09-23T06:59:13.256Z,101487.22
2022-09-23T07:01:42.019Z,101501.25
2022-09-23T07:04:10.266Z,101504.81
2022-09-23T07:06:40.573Z,101493.34
2022-09-23T07:09:11.612Z,101503.00
2022-09-23T07:11:39.864Z,101494.19
2022-09-23T07:14:11.289Z,101494.19
2022-09-23T07:16:39.924Z,101489.72
2022-09-23T07:19:08.303Z,101487.06
2022-09-23T07:21:36.946Z,101491.44
2022-09-23T07:24:05.452Z,101487.91
2022-09-23T07:26:34.211Z,101500.25
2022-09-23T07:29:05.243Z,101492.25
2022-09-23T07:31:39.581Z,101492.28
2022-09-23T07:34:11.661Z,101501.03
2022-09-23T07:36:41.833Z,101492.19
2022-09-23T07:39:11.294Z,101498.34
2022-09-23T07:41:41.840Z,101505.38
2022-09-23T07:44:12.167Z,101493.91
2022-09-23T07:46:41.713Z,101494.75
2022-09-23T07:49:10.689Z,101503.53
2022-09-23T07:51:41.629Z,101502.63
2022-09-23T07:54:13.119Z,101499.06
2022-09-23T07:56:42.782Z,101502.56
2022-09-23T07:59:15.534Z,101497.25
2022-09-23T08:01:48.132Z,101493.75
2022-09-23T08:04:18.920Z,101492.81
2022-09-23T08:06:49.406Z,101491.88
2022-09-23T08:09:19.365Z,101498.97
2022-09-23T08:11:47.596Z,101493.59
2022-09-23T08:14:18.178Z,101498.84
2022-09-23T08:16:48.318Z,101490.91
2022-09-23T08:19:16.841Z,101497.06
2022-09-23T08:21:47.743Z,101496.19
2022-09-23T08:24:18.114Z,101492.66
2022-09-23T08:26:47.275Z,101491.75
2022-09-23T08:29:16.443Z,101489.88
2022-09-23T08:31:44.867Z,101488.94
2022-09-23T08:34:14.723Z,101499.44
2022-09-23T08:36:43.002Z,101487.88
2022-09-23T08:39:14.444Z,101491.22
2022-09-23T08:41:53.831Z,101486.63
2022-09-23T08:44:29.443Z,101487.50
2022-09-23T08:47:10.569Z,101490.00
2022-09-23T08:49:54.382Z,101481.09
2022-09-23T08:52:30.842Z,101483.53
2022-09-23T08:54:59.042Z,101487.81
2022-09-23T08:57:39.639Z,101486.78
2022-09-23T09:00:08.920Z,101478.75
2022-09-23T09:02:37.775Z,101477.81
2022-09-23T09:05:12.541Z,101474.28
2022-09-23T09:07:43.255Z,101476.75
2022-09-23T09:10:18.946Z,101475.69
2022-09-23T09:12:48.886Z,101478.22
2022-09-23T09:15:20.853Z,101478.97
2022-09-23T09:18:01.414Z,101463.00
2022-09-23T09:20:40.004Z,101465.66
2022-09-23T09:23:22.347Z,101462.84
2022-09-23T09:25:52.139Z,101467.19
2022-09-23T09:28:27.167Z,101461.78
2022-09-23T09:30:59.316Z,101455.56
2022-09-23T09:33:33.255Z,101458.19
2022-09-23T09:36:11.111Z,101462.66
2022-09-23T09:38:39.750Z,101455.44
2022-09-23T09:41:15.722Z,101460.81
2022-09-23T09:43:48.485Z,101449.28
2022-09-23T09:46:34.349Z,101455.50
2022-09-23T09:49:10.607Z,101450.03
2022-09-23T09:51:42.913Z,101453.41
2022-09-23T09:54:20.610Z,101443.69
2022-09-23T09:56:50.076Z,101447.00
2022-09-23T09:59:23.511Z,101449.38
2022-09-23T10:02:11.873Z,101438.81
2022-09-23T10:04:40.122Z,101437.06
2022-09-23T10:07:14.508Z,101440.56
2022-09-23T10:09:50.142Z,101439.88
2022-09-23T10:12:20.238Z,101443.56
2022-09-23T10:14:51.400Z,101432.94
2022-09-23T10:17:23.186Z,101424.97
2022-09-23T10:20:00.473Z,101416.97
2022-09-23T10:22:34.762Z,101421.19
2022-09-23T10:25:07.886Z,101420.97
2022-09-23T10:27:39.534Z,101424.44
2022-09-23T10:30:22.959Z,101420.03
2022-09-23T10:32:53.502Z,101421.59
2022-09-23T10:35:24.547Z,101409.94
2022-09-23T10:37:56.106Z,101417.69
2022-09-23T10:40:49.109Z,101413.03
2022-09-23T10:43:46.586Z,101407.59
2022-09-23T10:46:39.463Z,101400.28
2022-09-23T10:49:22.272Z,101413.28
2022-09-23T10:51:59.757Z,101410.34
2022-09-23T10:54:39.397Z,101406.84
2022-09-23T10:57:37.939Z,101413.72
2022-09-23T11:00:17.841Z,101413.84
2022-09-23T11:03:03.151Z,101407.03
2022-09-23T11:05:39.868Z,101405.16
2022-09-23T11:08:27.375Z,101408.38
2022-09-23T11:11:11.841Z,101405.38
2022-09-23T11:13:54.935Z,101409.38
2022-09-23T11:16:37.463Z,101405.13
2022-09-23T11:19:34.170Z,101398.78
2022-09-23T11:22:24.932Z,101400.94
2022-09-23T11:25:18.345Z,101406.38
2022-09-23T11:28:07.396Z,101400.88
2022-09-23T11:30:45.512Z,101402.13
2022-09-23T11:33:32.106Z,101403.34
2022-09-23T11:36:05.102Z,101409.56
2022-09-23T11:38:40.405Z,101410.47
2022-09-23T11:41:18.756Z,101404.59
2022-09-23T11:43:52.803Z,101407.53
2022-09-23T11:46:33.091Z,101402.41
2022-09-23T11:49:09.526Z,101399.97
2022-09-23T11:51:44.579Z,101396.56
2022-09-23T11:54:20.958Z,101392.22
2022-09-23T11:56:54.022Z,101392.16
2022-09-23T11:59:40.237Z,101380.56
2022-09-23T12:02:22.930Z,101376.88
2022-09-23T12:05:01.601Z,101368.84
2022-09-23T12:07:43.816Z,101367.09
2022-09-23T12:10:13.668Z,101372.84
2022-09-23T12:12:49.035Z,101382.75
2022-09-23T12:15:31.053Z,101381.13
2022-09-23T12:18:23.612Z,101375.97
2022-09-23T12:21:49.084Z,101378.06
2022-09-23T12:24:46.164Z,101384.94
2022-09-23T12:27:24.174Z,101368.72
2022-09-23T12:29:58.372Z,101374.00
2022-09-23T12:32:28.770Z,101371.28
2022-09-23T12:34:57.073Z,101370.16
2022-09-23T12:37:29.712Z,101366.94
2022-09-23T12:40:03.259Z,101369.75
2022-09-23T12:42:32.009Z,101353.03
2022-09-23T12:45:35.832Z,101363.66
2022-09-23T12:48:27.218Z,101369.09
2022-09-23T12:50:59.698Z,101360.97
2022-09-23T12:53:58.104Z,101360.28
2022-09-23T12:56:29.991Z,101360.03
2022-09-23T12:59:14.230Z,101354.78
2022-09-23T13:01:42.702Z,101346.03
2022-09-23T13:04:52.707Z,101347.03
2022-09-23T13:07:26.503Z,101349.25
2022-09-23T13:10:02.513Z,101350.47
2022-09-23T13:12:33.788Z,101349.66
2022-09-23T13:15:06.643Z,101339.09
2022-09-23T13:17:39.453Z,101361.28
2022-09-23T13:20:38.525Z,101358.94
2022-09-23T13:23:21.387Z,101352.78
2022-09-23T13:25:51.762Z,101359.03
2022-09-23T13:28:33.871Z,101353.06
2022-09-23T13:31:06.588Z,101338.94
2022-09-23T13:33:42.633Z,101337.31
2022-09-23T13:36:16.078Z,101345.13
2022-09-23T13:38:46.617Z,101333.56
2022-09-23T13:41:17.457Z,101338.88
2022-09-23T13:43:49.167Z,101333.56
2022-09-23T13:46:20.814Z,101332.72
2022-09-23T13:48:54.676Z,101329.34
2022-09-23T13:51:27.286Z,101327.63
2022-09-23T13:53:57.713Z,101324.91
2022-09-23T13:56:27.392Z,101322.16
2022-09-23T13:58:56.892Z,101320.38
2022-09-23T14:01:32.488Z,101304.66
2022-09-23T14:04:01.416Z,101308.28
2022-09-23T14:06:32.800Z,101306.47
2022-09-23T14:09:03.556Z,101301.31
2022-09-23T14:11:35.234Z,101302.19
2022-09-23T14:14:08.088Z,101299.59
2022-09-23T14:16:39.949Z,101299.72
2022-09-23T14:19:09.319Z,101294.22
2022-09-23T14:21:40.247Z,101294.16
2022-09-23T14:24:19.961Z,101288.91
2022-09-23T14:26:50.259Z,101289.09
2022-09-23T14:29:21.180Z,101288.19
2022-09-23T14:31:57.834Z,101282.25
2022-09-23T14:34:48.355Z,101283.91
2022-09-23T14:37:47.709Z,101283.91
2022-09-23T14:40:18.929Z,101285.66
2022-09-23T14:42:49.694Z,101274.91
2022-09-23T14:45:21.050Z,101266.22
2022-09-23T14:47:52.866Z,101271.41
2022-09-23T14:50:43.718Z,101274.00
2022-09-23T14:53:35.195Z,101270.56
2022-09-23T14:56:13.403Z,101276.72
2022-09-23T14:59:01.890Z,101266.97
2022-09-23T15:01:40.569Z,101267.84
2022-09-23T15:04:15.564Z,101267.84
2022-09-23T15:06:48.949Z,101266.06
2022-09-23T15:09:24.693Z,101262.50
2022-09-23T15:11:54.495Z,101263.34
2022-09-23T15:14:39.474Z,101260.47
2022-09-23T15:17:18.461Z,101254.34
2022-09-23T15:19:52.639Z,101258.63
2022-09-23T15:22:21.056Z,101254.94
2022-09-23T15:24:53.575Z,101251.50
2022-09-23T15:27:29.680Z,101247.22
2022-09-23T15:30:04.070Z,101256.91
2022-09-23T15:32:32.244Z,101255.03
2022-09-23T15:35:00.518Z,101249.78
2022-09-23T15:37:31.719Z,101252.44
2022-09-23T15:40:04.447Z,101246.34
2022-09-23T15:42:35.249Z,101257.09
2022-09-23T15:45:03.450Z,101249.22
2022-09-23T15:47:33.358Z,101251.78
2022-09-23T15:50:01.597Z,101249.16
2022-09-23T15:52:29.808Z,101254.56
2022-09-23T15:54:58.019Z,101246.66
2022-09-23T15:57:27.553Z,101250.16
2022-09-23T15:59:58.631Z,101252.78
2022-09-23T16:02:26.887Z,101243.09
2022-09-23T16:04:55.029Z,101248.28
2022-09-23T16:07:24.522Z,101248.34
2022-09-23T16:09:52.628Z,101262.59
2022-09-23T16:12:20.751Z,101245.75
2022-09-23T16:14:51.226Z,101249.22
2022-09-23T16:17:19.259Z,101246.59
2022-09-23T16:19:47.330Z,101244.03
2022-09-23T16:22:17.190Z,101245.06
2022-09-23T16:24:45.285Z,101241.56
2022-09-23T16:27:19.693Z,101243.38
2022-09-23T16:29:49.156Z,101237.25
2022-09-23T16:32:22.004Z,101232.81
2022-09-23T16:34:50.581Z,101236.38
2022-09-23T16:37:21.210Z,101231.06
2022-09-23T16:39:49.941Z,101233.66
2022-09-23T16:42:18.282Z,101235.41
2022-09-23T16:44:46.390Z,101234.56
2022-09-23T16:47:16.199Z,101229.44
2022-09-23T16:49:45.198Z,101234.78
2022-09-23T16:52:17.268Z,101219.75
2022-09-23T16:54:45.295Z,101225.09
2022-09-23T16:57:13.573Z,101226.03
2022-09-23T16:59:59.254Z,101218.94
2022-09-23T17:02:46.287Z,101218.16
2022-09-23T17:05:18.621Z,101217.19
2022-09-23T17:07:46.901Z,101226.97
2022-09-23T17:10:15.537Z,101226.97
2022-09-23T17:12:44.291Z,101226.22
2022-09-23T17:15:13.143Z,101220.91
2022-09-23T17:17:42.761Z,101215.66
2022-09-23T17:20:13.251Z,101213.94
2022-09-23T17:22:42.563Z,101213.06
2022-09-23T17:25:11.594Z,101213.16
2022-09-23T17:27:42.113Z,101210.53
2022-09-23T17:30:11.844Z,101215.91
2022-09-23T17:32:39.986Z,101220.41
2022-09-23T17:35:10.953Z,101205.47
2022-09-23T17:37:39.335Z,101208.97
2022-09-23T17:40:08.746Z,101201.88
2022-09-23T17:42:42.540Z,101205.50
2022-09-23T17:45:13.809Z,101205.47
2022-09-23T17:47:42.353Z,101207.19
2022-09-23T17:50:15.061Z,101209.06
2022-09-23T17:52:43.368Z,101200.16
2022-09-23T17:55:12.232Z,101202.78
2022-09-23T17:57:40.497Z,101204.53
2022-09-23T18:00:10.643Z,101207.34
2022-09-23T18:02:38.772Z,101202.03
2022-09-23T18:05:07.931Z,101195.97
2022-09-23T18:07:37.667Z,101209.25
2022-09-23T18:10:07.351Z,101207.56
2022-09-23T18:12:35.576Z,101174.28
2022-09-23T18:15:03.858Z,101203.19
2022-09-23T18:17:31.832Z,101193.53
2022-09-23T18:19:59.955Z,101205.03
2022-09-23T18:22:28.636Z,101194.44
2022-09-23T18:24:58.260Z,101196.25
2022-09-23T18:27:26.997Z,101197.09
2022-09-23T18:29:55.387Z,101196.25
2022-09-23T18:32:23.495Z,101186.59
2022-09-23T18:34:51.811Z,101196.28
2022-09-23T18:37:20.105Z,101183.19
2022-09-23T18:39:48.883Z,101194.56
2022-09-23T18:42:18.415Z,101192.88
2022-09-23T18:44:47.286Z,101197.25
2022-09-23T18:47:35.778Z,101191.94
2022-09-23T18:50:21.375Z,101199.94
2022-09-23T18:52:49.690Z,101197.25
2022-09-23T18:55:17.943Z,101192.00
2022-09-23T18:57:48.271Z,101200.78
2022-09-23T19:00:16.912Z,101190.19
2022-09-23T19:02:45.470Z,101197.16
2022-09-23T19:05:14.867Z,101203.31
2022-09-23T19:07:43.027Z,101202.38
2022-09-23T19:10:11.709Z,101200.66
2022-09-23T19:12:42.611Z,101203.25
2022-09-23T19:15:13.025Z,101198.00
2022-09-23T19:17:41.586Z,101200.53
2022-09-23T19:20:11.146Z,101196.19
2022-09-23T19:22:39.836Z,101202.28
2022-09-23T19:25:10.149Z,101200.59
2022-09-23T19:27:39.678Z,101206.75
2022-09-23T19:30:09.218Z,101204.06
2022-09-23T19:32:40.666Z,101208.44
2022-09-23T19:35:10.352Z,101202.25
2022-09-23T19:37:38.635Z,101200.44
2022-09-23T19:40:07.970Z,101209.25
2022-09-23T19:42:37.612Z,101203.97
2022-09-23T19:45:06.437Z,101200.38
2022-09-23T19:47:41.143Z,101199.47
2022-09-23T19:50:11.305Z,101196.81
2022-09-23T19:52:40.805Z,101199.47
2022-09-23T19:55:09.992Z,101194.16
2022-09-23T19:57:38.531Z,101182.72
2022-09-23T20:00:08.403Z,101187.97
2022-09-23T20:02:36.706Z,101191.50
2022-09-23T20:05:05.127Z,101196.00
2022-09-23T20:07:34.873Z,101196.91
2022-09-23T20:10:02.990Z,101193.31
2022-09-23T20:12:34.363Z,101188.16
2022-09-23T20:15:02.539Z,101195.19
2022-09-23T20:17:31.791Z,101189.88
2022-09-23T20:20:00.329Z,101186.38
2022-09-23T20:22:33.133Z,101179.31
2022-09-23T20:25:03.456Z,101189.88
2022-09-23T20:27:31.777Z,101181.88
2022-09-23T20:30:00.483Z,101182.75
2022-09-23T20:32:29.166Z,101183.59
2022-09-23T20:34:57.355Z,101184.47
2022-09-23T20:37:25.909Z,101187.13
2022-09-23T20:39:54.540Z,101189.78
2022-09-23T20:42:24.552Z,101186.34
2022-09-23T20:44:52.645Z,101173.97
2022-09-23T20:47:23.895Z,101175.78
2022-09-23T20:49:53.898Z,101176.75
2022-09-23T20:52:22.960Z,101170.56
2022-09-23T20:54:51.833Z,101174.19
2022-09-23T20:57:21.474Z,101176.00
2022-09-23T20:59:51.334Z,101175.94
2022-09-23T21:02:19.534Z,101178.56
2022-09-23T21:04:47.743Z,101172.38
2022-09-23T21:07:16.023Z,101177.72
2022-09-23T21:09:44.076Z,101182.97
2022-09-23T21:12:12.300Z,101170.59
2022-09-23T21:14:40.939Z,101182.19
2022-09-23T21:17:10.429Z,101174.28
2022-09-23T21:19:38.676Z,101179.56
2022-09-23T21:22:06.946Z,101183.19
2022-09-23T21:25:03.825Z,101177.91
2022-09-23T21:27:23.589Z,101174.34
2022-09-23T21:29:51.637Z,101174.41
2022-09-23T21:32:21.407Z,101176.22
2022-09-23T21:34:49.830Z,101176.22
2022-09-23T21:37:17.934Z,101172.78
2022-09-23T21:40:06.376Z,101174.56
2022-09-23T21:42:35.338Z,101183.53
2022-09-23T21:45:04.348Z,101180.94
2022-09-23T21:47:34.261Z,101185.38
2022-09-23T21:50:04.281Z,101173.03
2022-09-23T21:52:32.281Z,101166.06
2022-09-23T21:55:00.434Z,101180.00
2022-09-23T21:57:31.228Z,101180.13
2022-09-23T21:59:59.251Z,101178.38
2022-09-23T22:02:27.679Z,101174.97
2022-09-23T22:04:57.385Z,101178.59
2022-09-23T22:07:25.658Z,101176.91
2022-09-23T22:09:53.803Z,101171.59
2022-09-23T22:12:21.965Z,101172.44
2022-09-23T22:14:51.658Z,101171.59
2022-09-23T22:17:19.934Z,101157.50
2022-09-23T22:19:48.825Z,101159.25
2022-09-23T22:22:19.661Z,101156.63
2022-09-23T22:24:48.912Z,101153.91
2022-09-23T22:27:18.775Z,101143.34
2022-09-23T22:30:04.330Z,101153.06
2022-09-23T22:32:41.726Z,101152.19
2022-09-23T22:35:11.867Z,101155.75
2022-09-23T22:37:41.461Z,101153.13
2022-09-23T22:40:14.618Z,101152.25
2022-09-23T22:42:43.787Z,101150.44
2022-09-23T22:45:13.125Z,101146.06
2022-09-23T22:47:45.725Z,101151.38
2022-09-23T22:50:15.364Z,101143.44
2022-09-23T22:52:44.985Z,101127.59
2022-09-23T22:55:13.590Z,101144.19
2022-09-23T22:57:41.857Z,101125.75
2022-09-23T23:00:12.304Z,101143.25
2022-09-23T23:02:42.748Z,101142.38
2022-09-23T23:05:11.869Z,101140.63
2022-09-23T23:07:40.579Z,101140.66
2022-09-23T23:10:11.317Z,101139.78
2022-09-23T23:12:40.245Z,101139.72
2022-09-23T23:15:10.684Z,101133.56
2022-09-23T23:17:39.108Z,101136.19
2022-09-23T23:20:08.634Z,101136.13
2022-09-23T23:22:36.725Z,101133.47
2022-09-23T23:25:05.181Z,101129.00
2022-09-23T23:27:35.876Z,101129.94
2022-09-23T23:30:04.070Z,101137.03
2022-09-23T23:32:32.652Z,101130.91
2022-09-23T23:35:00.733Z,101130.81
2022-09-23T23:37:30.055Z,101113.22
2022-09-23T23:39:58.266Z,101120.22
2022-09-23T23:42:26.668Z,101123.72
2022-09-23T23:44:56.051Z,101117.53
2022-09-23T23:47:24.257Z,101113.16
2022-09-23T23:49:52.478Z,101121.97
2022-09-23T23:52:20.575Z,101118.41
2022-09-23T23:54:48.796Z,101116.72
2022-09-23T23:57:17.280Z,101107.84
2022-09-23T23:59:45.318Z,101117.50
